createdAt,value
2022-09-21T00:00:30.933Z,39.73
2022-09-21T00:01:02.408Z,39.92
2022-09-21T00:01:33.881Z,40.19
2022-09-21T00:02:05.539Z,39.83
2022-09-21T00:02:37.021Z,40.42
2022-09-21T00:03:08.535Z,39.87
2022-09-21T00:03:39.934Z,40.09
2022-09-21T00:04:11.383Z,39.78
2022-09-21T00:04:42.850Z,39.80
2022-09-21T00:05:14.298Z,40.03
2022-09-21T00:05:45.788Z,39.81
2022-09-21T00:06:17.156Z,39.74
2022-09-21T00:06:48.645Z,39.55
2022-09-21T00:07:20.114Z,40.09
2022-09-21T00:07:51.574Z,39.78
2022-09-21T00:08:23.034Z,39.98
2022-09-21T00:08:54.564Z,39.69
2022-09-21T00:09:26.017Z,39.86
2022-09-21T00:09:57.477Z,39.81
2022-09-21T00:10:28.903Z,39.64
2022-09-21T00:11:00.332Z,39.82
2022-09-21T00:11:31.743Z,40.04
2022-09-21T00:12:03.170Z,39.72
2022-09-21T00:12:34.643Z,39.79
2022-09-21T00:13:06.096Z,40.06
2022-09-21T00:13:37.506Z,39.78
2022-09-21T00:14:08.979Z,40.05
2022-09-21T00:14:40.490Z,39.96
2022-09-21T00:15:12.062Z,39.73
2022-09-21T00:15:43.567Z,39.99
2022-09-21T00:16:15.128Z,39.94
2022-09-21T00:16:46.568Z,39.92
2022-09-21T00:17:18.177Z,39.81
2022-09-21T00:17:49.624Z,39.82
2022-09-21T00:18:21.315Z,39.72
2022-09-21T00:18:52.729Z,39.74
2022-09-21T00:19:24.183Z,39.71
2022-09-21T00:19:55.617Z,39.89
2022-09-21T00:20:27.170Z,39.85
2022-09-21T00:20:58.598Z,39.91
2022-09-21T00:21:30.071Z,39.70
2022-09-21T00:22:01.517Z,39.84
2022-09-21T00:22:32.946Z,39.89
2022-09-21T00:23:04.447Z,39.79
2022-09-21T00:23:35.881Z,39.91
2022-09-21T00:24:07.348Z,40.03
2022-09-21T00:24:38.811Z,39.93
2022-09-21T00:25:10.207Z,39.75
2022-09-21T00:25:41.672Z,39.74
2022-09-21T00:26:13.147Z,40.04
2022-09-21T00:26:44.549Z,39.94
2022-09-21T00:27:15.990Z,40.00
2022-09-21T00:27:47.387Z,39.92
2022-09-21T00:28:18.806Z,39.96
2022-09-21T00:28:50.197Z,39.85
2022-09-21T00:29:21.609Z,39.94
2022-09-21T00:29:53.078Z,39.87
2022-09-21T00:30:24.481Z,40.08
2022-09-21T00:30:55.983Z,40.05
2022-09-21T00:31:27.464Z,40.00
2022-09-21T00:31:59.014Z,39.98
2022-09-21T00:32:30.458Z,39.97
2022-09-21T00:33:01.902Z,40.00
2022-09-21T00:33:33.298Z,40.25
2022-09-21T00:34:04.714Z,39.85
2022-09-21T00:34:36.118Z,39.83
2022-09-21T00:35:07.556Z,39.78
2022-09-21T00:35:38.938Z,39.84
2022-09-21T00:36:10.417Z,39.85
2022-09-21T00:36:41.870Z,40.06
2022-09-21T00:37:13.259Z,39.95
2022-09-21T00:37:44.755Z,40.08
2022-09-21T00:38:16.219Z,40.12
2022-09-21T00:38:47.635Z,40.14
2022-09-21T00:39:19.112Z,40.19
2022-09-21T00:39:50.531Z,40.37
2022-09-21T00:40:22.012Z,40.19
2022-09-21T00:40:53.463Z,40.14
2022-09-21T00:41:24.934Z,40.21
2022-09-21T00:41:56.427Z,40.04
2022-09-21T00:42:27.854Z,40.11
2022-09-21T00:42:59.339Z,40.30
2022-09-21T00:43:30.721Z,40.13
2022-09-21T00:44:02.112Z,40.10
2022-09-21T00:44:33.651Z,40.38
2022-09-21T00:45:05.104Z,39.92
2022-09-21T00:45:36.637Z,40.06
2022-09-21T00:46:08.096Z,40.28
2022-09-21T00:46:39.612Z,40.08
2022-09-21T00:47:11.023Z,39.97
2022-09-21T00:47:42.410Z,40.02
2022-09-21T00:48:13.903Z,40.14
2022-09-21T00:48:45.335Z,40.08
2022-09-21T00:49:16.745Z,40.13
2022-09-21T00:49:48.177Z,40.24
2022-09-21T00:50:19.688Z,40.18
2022-09-21T00:50:51.091Z,40.16
2022-09-21T00:51:22.469Z,40.19
2022-09-21T00:51:53.951Z,40.27
2022-09-21T00:52:25.430Z,40.07
2022-09-21T00:52:56.960Z,40.08
2022-09-21T00:53:28.486Z,40.19
2022-09-21T00:53:59.975Z,40.08
2022-09-21T00:54:31.368Z,39.99
2022-09-21T00:55:02.886Z,39.98
2022-09-21T00:55:34.311Z,39.98
2022-09-21T00:56:05.705Z,40.20
2022-09-21T00:56:37.135Z,40.09
2022-09-21T00:57:08.595Z,40.23
2022-09-21T00:57:40.020Z,40.09
2022-09-21T00:58:11.425Z,40.06
2022-09-21T00:58:42.837Z,40.18
2022-09-21T00:59:14.204Z,40.35
2022-09-21T00:59:45.586Z,40.07
2022-09-21T01:00:16.995Z,40.32
2022-09-21T01:00:48.525Z,40.15
2022-09-21T01:01:19.981Z,40.25
2022-09-21T01:01:51.506Z,40.03
2022-09-21T01:02:22.963Z,39.97
2022-09-21T01:02:54.498Z,39.96
2022-09-21T01:03:25.978Z,40.35
2022-09-21T01:03:57.425Z,40.22
2022-09-21T01:04:28.866Z,40.16
2022-09-21T01:05:00.308Z,40.01
2022-09-21T01:05:31.721Z,40.20
2022-09-21T01:06:03.224Z,40.23
2022-09-21T01:06:34.655Z,40.07
2022-09-21T01:07:06.105Z,40.10
2022-09-21T01:07:37.551Z,40.04
2022-09-21T01:08:08.970Z,40.09
2022-09-21T01:08:40.373Z,40.27
2022-09-21T01:09:11.780Z,40.09
2022-09-21T01:09:43.175Z,40.03
2022-09-21T01:10:14.707Z,40.07
2022-09-21T01:10:46.131Z,40.26
2022-09-21T01:11:17.538Z,40.17
2022-09-21T01:11:49.017Z,39.93
2022-09-21T01:12:20.408Z,40.06
2022-09-21T01:12:51.930Z,40.05
2022-09-21T01:13:23.320Z,40.19
2022-09-21T01:13:54.774Z,40.06
2022-09-21T01:14:26.200Z,39.98
2022-09-21T01:14:57.656Z,39.97
2022-09-21T01:15:29.057Z,40.10
2022-09-21T01:16:00.527Z,40.33
2022-09-21T01:16:32.006Z,39.98
2022-09-21T01:17:03.639Z,40.06
2022-09-21T01:17:35.106Z,40.25
2022-09-21T01:18:06.664Z,40.05
2022-09-21T01:18:38.077Z,40.03
2022-09-21T01:19:09.498Z,39.96
2022-09-21T01:19:40.895Z,40.14
2022-09-21T01:20:12.294Z,39.79
2022-09-21T01:20:43.669Z,39.97
2022-09-21T01:21:15.079Z,40.36
2022-09-21T01:21:46.513Z,40.11
2022-09-21T01:22:17.901Z,40.21
2022-09-21T01:22:49.381Z,40.12
2022-09-21T01:23:20.931Z,40.27
2022-09-21T01:23:55.103Z,40.12
2022-09-21T01:24:26.502Z,40.22
2022-09-21T01:24:57.892Z,40.45
2022-09-21T01:25:29.342Z,40.00
2022-09-21T01:26:00.774Z,40.13
2022-09-21T01:26:32.185Z,39.99
2022-09-21T01:27:03.649Z,39.91
2022-09-21T01:27:35.050Z,40.07
2022-09-21T01:28:06.513Z,40.11
2022-09-21T01:28:37.996Z,40.05
2022-09-21T01:29:09.398Z,39.94
2022-09-21T01:29:40.848Z,40.02
2022-09-21T01:30:12.268Z,39.91
2022-09-21T01:30:46.977Z,40.04
2022-09-21T01:31:20.457Z,40.09
2022-09-21T01:31:51.899Z,39.94
2022-09-21T01:32:23.307Z,40.06
2022-09-21T01:32:54.780Z,39.90
2022-09-21T01:33:26.201Z,40.10
2022-09-21T01:33:57.654Z,40.04
2022-09-21T01:34:29.113Z,39.82
2022-09-21T01:35:00.538Z,40.13
2022-09-21T01:35:32.016Z,39.99
2022-09-21T01:36:03.519Z,39.69
2022-09-21T01:36:35.011Z,39.87
2022-09-21T01:37:06.458Z,40.00
2022-09-21T01:37:37.997Z,39.64
2022-09-21T01:38:09.410Z,39.85
2022-09-21T01:38:40.812Z,40.02
2022-09-21T01:39:12.253Z,39.77
2022-09-21T01:39:43.680Z,40.00
2022-09-21T01:40:15.157Z,39.87
2022-09-21T01:40:46.613Z,39.67
2022-09-21T01:41:18.095Z,39.67
2022-09-21T01:41:49.516Z,39.97
2022-09-21T01:42:20.921Z,40.07
2022-09-21T01:42:52.448Z,39.84
2022-09-21T01:43:23.830Z,39.76
2022-09-21T01:43:55.271Z,39.75
2022-09-21T01:44:26.806Z,39.83
2022-09-21T01:44:58.254Z,39.80
2022-09-21T01:45:29.797Z,39.77
2022-09-21T01:46:01.264Z,39.82
2022-09-21T01:46:32.769Z,39.75
2022-09-21T01:47:04.170Z,39.56
2022-09-21T01:47:35.689Z,39.86
2022-09-21T01:48:07.068Z,39.76
2022-09-21T01:48:38.469Z,39.68
2022-09-21T01:49:09.999Z,39.66
2022-09-21T01:49:41.418Z,39.54
2022-09-21T01:50:12.894Z,39.42
2022-09-21T01:50:44.320Z,39.31
2022-09-21T01:51:15.814Z,39.22
2022-09-21T01:51:47.206Z,39.44
2022-09-21T01:52:18.680Z,39.48
2022-09-21T01:52:50.113Z,39.51
2022-09-21T01:53:21.578Z,39.42
2022-09-21T01:53:52.986Z,39.42
2022-09-21T01:54:24.398Z,39.40
2022-09-21T01:54:55.981Z,39.37
2022-09-21T01:55:27.423Z,39.39
2022-09-21T01:55:58.866Z,39.46
2022-09-21T01:56:30.288Z,39.67
2022-09-21T01:57:01.695Z,39.62
2022-09-21T01:57:33.241Z,39.78
2022-09-21T01:58:04.653Z,39.64
2022-09-21T01:58:36.111Z,39.53
2022-09-21T01:59:07.506Z,39.58
2022-09-21T01:59:38.905Z,39.48
2022-09-21T02:00:10.337Z,39.49
2022-09-21T02:00:41.791Z,39.29
2022-09-21T02:01:13.319Z,39.45
2022-09-21T02:01:44.753Z,39.15
2022-09-21T02:02:16.313Z,39.74
2022-09-21T02:02:47.745Z,39.41
2022-09-21T02:03:19.182Z,39.13
2022-09-21T02:03:50.590Z,39.26
2022-09-21T02:04:22.022Z,39.17
2022-09-21T02:04:53.470Z,39.27
2022-09-21T02:05:24.927Z,39.10
2022-09-21T02:05:56.396Z,39.17
2022-09-21T02:06:27.832Z,39.10
2022-09-21T02:06:59.281Z,38.96
2022-09-21T02:07:30.736Z,39.28
2022-09-21T02:08:02.131Z,39.42
2022-09-21T02:08:33.712Z,39.48
2022-09-21T02:09:05.064Z,39.17
2022-09-21T02:09:36.474Z,39.37
2022-09-21T02:10:07.919Z,39.19
2022-09-21T02:10:39.457Z,39.39
2022-09-21T02:11:10.907Z,39.38
2022-09-21T02:11:42.444Z,39.39
2022-09-21T02:12:18.754Z,39.54
2022-09-21T02:12:50.770Z,39.52
2022-09-21T02:13:22.291Z,39.30
2022-09-21T02:13:53.748Z,39.47
2022-09-21T02:14:25.167Z,39.36
2022-09-21T02:14:56.550Z,39.30
2022-09-21T02:15:28.024Z,39.31
2022-09-21T02:15:59.571Z,39.14
2022-09-21T02:16:31.206Z,38.94
2022-09-21T02:17:02.738Z,38.86
2022-09-21T02:17:34.224Z,39.14
2022-09-21T02:18:05.634Z,39.06
2022-09-21T02:18:37.108Z,39.09
2022-09-21T02:19:08.618Z,39.05
2022-09-21T02:19:42.737Z,38.98
2022-09-21T02:20:14.155Z,39.34
2022-09-21T02:20:45.614Z,39.03
2022-09-21T02:21:17.229Z,39.06
2022-09-21T02:21:48.636Z,39.14
2022-09-21T02:22:20.048Z,39.16
2022-09-21T02:22:51.486Z,38.99
2022-09-21T02:23:22.919Z,39.15
2022-09-21T02:23:54.344Z,38.92
2022-09-21T02:24:25.839Z,38.87
2022-09-21T02:24:57.303Z,38.98
2022-09-21T02:25:28.721Z,38.93
2022-09-21T02:26:00.240Z,38.91
2022-09-21T02:26:31.779Z,38.99
2022-09-21T02:27:03.212Z,39.08
2022-09-21T02:27:34.683Z,38.88
2022-09-21T02:28:06.096Z,38.99
2022-09-21T02:28:37.578Z,38.96
2022-09-21T02:29:09.023Z,38.79
2022-09-21T02:29:40.416Z,38.90
2022-09-21T02:30:11.969Z,38.98
2022-09-21T02:30:43.389Z,38.92
2022-09-21T02:31:14.849Z,39.04
2022-09-21T02:31:46.347Z,39.28
2022-09-21T02:32:17.742Z,38.91
2022-09-21T02:32:49.148Z,39.11
2022-09-21T02:33:20.612Z,39.05
2022-09-21T02:33:52.036Z,39.08
2022-09-21T02:34:23.423Z,38.86
2022-09-21T02:34:54.899Z,38.93
2022-09-21T02:35:26.285Z,38.72
2022-09-21T02:35:57.731Z,38.79
2022-09-21T02:36:29.229Z,38.91
2022-09-21T02:37:00.710Z,38.78
2022-09-21T02:37:32.195Z,38.85
2022-09-21T02:38:03.724Z,38.75
2022-09-21T02:38:35.251Z,38.66
2022-09-21T02:39:06.693Z,38.84
2022-09-21T02:39:38.224Z,38.76
2022-09-21T02:40:09.702Z,38.94
2022-09-21T02:40:41.234Z,38.55
2022-09-21T02:41:12.604Z,38.59
2022-09-21T02:41:44.031Z,38.62
2022-09-21T02:42:15.590Z,38.61
2022-09-21T02:42:46.996Z,38.47
2022-09-21T02:43:18.449Z,38.62
2022-09-21T02:43:49.845Z,38.53
2022-09-21T02:44:21.377Z,38.71
2022-09-21T02:44:52.877Z,38.96
2022-09-21T02:45:24.297Z,38.79
2022-09-21T02:45:55.748Z,38.75
2022-09-21T02:46:27.172Z,38.69
2022-09-21T02:46:58.681Z,38.65
2022-09-21T02:47:30.185Z,38.84
2022-09-21T02:48:01.652Z,39.04
2022-09-21T02:48:33.043Z,38.96
2022-09-21T02:49:04.643Z,38.56
2022-09-21T02:49:36.048Z,38.73
2022-09-21T02:50:07.507Z,38.86
2022-09-21T02:50:38.965Z,38.89
2022-09-21T02:51:10.375Z,39.01
2022-09-21T02:51:41.833Z,38.81
2022-09-21T02:52:13.224Z,38.81
2022-09-21T02:52:44.729Z,38.89
2022-09-21T02:53:16.168Z,38.74
2022-09-21T02:53:47.632Z,38.83
2022-09-21T02:54:19.065Z,38.69
2022-09-21T02:54:50.444Z,38.92
2022-09-21T02:55:21.858Z,38.76
2022-09-21T02:55:56.445Z,38.75
2022-09-21T02:56:28.136Z,38.57
2022-09-21T02:56:59.534Z,38.40
2022-09-21T02:57:30.939Z,38.38
2022-09-21T02:58:02.554Z,38.58
2022-09-21T02:58:33.935Z,38.53
2022-09-21T02:59:05.507Z,38.57
2022-09-21T02:59:37.049Z,38.19
2022-09-21T03:00:08.468Z,38.61
2022-09-21T03:00:39.920Z,38.27
2022-09-21T03:01:11.368Z,38.43
2022-09-21T03:01:42.834Z,38.69
2022-09-21T03:02:14.367Z,38.34
2022-09-21T03:02:45.871Z,38.46
2022-09-21T03:03:17.447Z,38.50
2022-09-21T03:03:48.876Z,38.46
2022-09-21T03:04:20.320Z,38.47
2022-09-21T03:04:51.822Z,39.08
2022-09-21T03:05:23.266Z,38.66
2022-09-21T03:05:54.735Z,38.66
2022-09-21T03:06:26.144Z,38.55
2022-09-21T03:06:57.694Z,38.61
2022-09-21T03:07:29.114Z,38.45
2022-09-21T03:08:00.672Z,38.70
2022-09-21T03:08:32.054Z,38.74
2022-09-21T03:09:03.579Z,38.63
2022-09-21T03:09:35.030Z,38.76
2022-09-21T03:10:06.487Z,38.66
2022-09-21T03:10:37.925Z,38.61
2022-09-21T03:11:09.303Z,38.53
2022-09-21T03:11:40.735Z,38.46
2022-09-21T03:12:12.150Z,38.60
2022-09-21T03:12:43.573Z,38.43
2022-09-21T03:13:14.988Z,38.47
2022-09-21T03:13:46.405Z,38.52
2022-09-21T03:14:17.820Z,38.78
2022-09-21T03:14:49.236Z,38.61
2022-09-21T03:15:20.782Z,38.47
2022-09-21T03:15:52.234Z,38.53
2022-09-21T03:16:23.674Z,38.58
2022-09-21T03:16:55.146Z,38.47
2022-09-21T03:17:26.600Z,38.71
2022-09-21T03:17:58.150Z,38.55
2022-09-21T03:18:29.550Z,38.38
2022-09-21T03:19:00.962Z,38.47
2022-09-21T03:19:32.418Z,38.62
2022-09-21T03:20:03.905Z,38.65
2022-09-21T03:20:35.443Z,38.54
2022-09-21T03:21:06.874Z,38.37
2022-09-21T03:21:42.314Z,38.22
2022-09-21T03:22:15.791Z,38.51
2022-09-21T03:22:47.252Z,38.50
2022-09-21T03:23:18.676Z,38.59
2022-09-21T03:23:50.106Z,38.46
2022-09-21T03:24:21.548Z,38.47
2022-09-21T03:24:53.004Z,38.58
2022-09-21T03:25:24.505Z,38.34
2022-09-21T03:25:55.925Z,38.16
2022-09-21T03:26:27.313Z,38.28
2022-09-21T03:26:58.757Z,38.22
2022-09-21T03:27:30.254Z,38.24
2022-09-21T03:28:01.704Z,38.27
2022-09-21T03:28:33.232Z,38.55
2022-09-21T03:29:04.819Z,38.45
2022-09-21T03:29:36.297Z,38.35
2022-09-21T03:30:07.741Z,38.51
2022-09-21T03:30:39.205Z,38.47
2022-09-21T03:31:10.662Z,38.35
2022-09-21T03:31:42.027Z,38.52
2022-09-21T03:32:13.433Z,38.32
2022-09-21T03:32:44.876Z,38.21
2022-09-21T03:33:16.316Z,38.16
2022-09-21T03:33:47.728Z,38.28
2022-09-21T03:34:19.190Z,38.09
2022-09-21T03:34:50.606Z,38.30
2022-09-21T03:35:22.114Z,38.19
2022-09-21T03:35:53.554Z,38.40
2022-09-21T03:36:25.031Z,38.20
2022-09-21T03:36:56.540Z,38.39
2022-09-21T03:37:28.009Z,38.30
2022-09-21T03:37:59.373Z,38.24
2022-09-21T03:38:30.764Z,38.39
2022-09-21T03:39:02.330Z,38.31
2022-09-21T03:39:33.754Z,38.32
2022-09-21T03:40:05.311Z,38.32
2022-09-21T03:40:36.808Z,38.27
2022-09-21T03:41:08.360Z,38.20
2022-09-21T03:41:39.773Z,38.30
2022-09-21T03:42:11.238Z,38.20
2022-09-21T03:42:42.633Z,38.24
2022-09-21T03:43:14.112Z,38.38
2022-09-21T03:43:45.574Z,38.31
2022-09-21T03:44:16.976Z,38.22
2022-09-21T03:44:48.401Z,38.41
2022-09-21T03:45:19.858Z,38.31
2022-09-21T03:45:51.283Z,38.41
2022-09-21T03:46:22.746Z,38.29
2022-09-21T03:46:54.163Z,38.31
2022-09-21T03:47:25.597Z,38.18
2022-09-21T03:47:56.982Z,38.40
2022-09-21T03:48:28.397Z,38.38
2022-09-21T03:48:59.813Z,38.39
2022-09-21T03:49:31.214Z,38.08
2022-09-21T03:50:05.618Z,38.38
2022-09-21T03:50:40.754Z,38.16
2022-09-21T03:51:12.146Z,38.08
2022-09-21T03:51:43.542Z,38.07
2022-09-21T03:52:15.021Z,37.96
2022-09-21T03:52:46.420Z,38.12
2022-09-21T03:53:17.876Z,38.04
2022-09-21T03:53:49.338Z,38.01
2022-09-21T03:54:20.836Z,38.19
2022-09-21T03:54:52.256Z,38.07
2022-09-21T03:55:23.636Z,37.99
2022-09-21T03:55:55.115Z,37.97
2022-09-21T03:56:26.518Z,38.03
2022-09-21T03:56:57.894Z,37.98
2022-09-21T03:57:29.277Z,37.98
2022-09-21T03:58:00.676Z,37.79
2022-09-21T03:58:32.121Z,37.73
2022-09-21T03:59:03.589Z,37.84
2022-09-21T03:59:35.032Z,38.04
2022-09-21T04:00:06.527Z,38.13
2022-09-21T04:00:37.924Z,37.86
2022-09-21T04:01:09.480Z,38.07
2022-09-21T04:01:41.026Z,38.06
2022-09-21T04:02:12.557Z,37.77
2022-09-21T04:02:44.026Z,37.96
2022-09-21T04:03:15.517Z,37.89
2022-09-21T04:03:46.953Z,38.13
2022-09-21T04:04:18.394Z,37.98
2022-09-21T04:04:49.788Z,38.06
2022-09-21T04:05:21.221Z,38.08
2022-09-21T04:05:52.639Z,38.00
2022-09-21T04:06:24.088Z,38.06
2022-09-21T04:06:55.564Z,37.98
2022-09-21T04:07:26.924Z,38.05
2022-09-21T04:07:58.364Z,38.05
2022-09-21T04:08:29.777Z,37.80
2022-09-21T04:09:01.227Z,37.75
2022-09-21T04:09:32.662Z,37.83
2022-09-21T04:10:04.061Z,38.04
2022-09-21T04:10:35.506Z,37.91
2022-09-21T04:11:07.004Z,37.80
2022-09-21T04:11:38.560Z,37.89
2022-09-21T04:12:10.041Z,37.99
2022-09-21T04:12:41.436Z,37.58
2022-09-21T04:13:12.980Z,37.72
2022-09-21T04:13:44.423Z,37.72
2022-09-21T04:14:15.892Z,37.91
2022-09-21T04:14:47.284Z,37.94
2022-09-21T04:15:18.694Z,37.86
2022-09-21T04:15:50.152Z,37.73
2022-09-21T04:16:21.621Z,37.85
2022-09-21T04:16:53.136Z,37.77
2022-09-21T04:17:24.568Z,37.73
2022-09-21T04:17:56.018Z,37.83
2022-09-21T04:18:27.521Z,37.87
2022-09-21T04:18:58.887Z,37.85
2022-09-21T04:19:30.317Z,37.96
2022-09-21T04:20:01.834Z,37.86
2022-09-21T04:20:33.224Z,37.93
2022-09-21T04:21:04.684Z,37.81
2022-09-21T04:21:36.181Z,37.75
2022-09-21T04:22:07.722Z,37.84
2022-09-21T04:22:43.357Z,37.77
2022-09-21T04:23:15.397Z,37.69
2022-09-21T04:23:46.881Z,37.69
2022-09-21T04:24:18.541Z,37.64
2022-09-21T04:24:50.073Z,37.36
2022-09-21T04:25:21.573Z,37.67
2022-09-21T04:25:52.987Z,37.86
2022-09-21T04:26:24.389Z,37.60
2022-09-21T04:26:55.845Z,37.56
2022-09-21T04:27:27.296Z,37.68
2022-09-21T04:27:58.767Z,37.43
2022-09-21T04:28:30.138Z,37.45
2022-09-21T04:29:01.595Z,37.59
2022-09-21T04:29:33.138Z,37.61
2022-09-21T04:30:04.721Z,37.36
2022-09-21T04:30:37.963Z,37.62
2022-09-21T04:31:09.744Z,37.35
2022-09-21T04:31:41.244Z,37.43
2022-09-21T04:32:12.794Z,37.46
2022-09-21T04:32:44.450Z,37.41
2022-09-21T04:33:15.991Z,37.58
2022-09-21T04:33:47.571Z,37.41
2022-09-21T04:34:19.040Z,37.46
2022-09-21T04:34:50.430Z,37.29
2022-09-21T04:35:21.863Z,37.73
2022-09-21T04:35:53.304Z,37.48
2022-09-21T04:36:24.729Z,37.59
2022-09-21T04:36:56.271Z,37.59
2022-09-21T04:37:27.717Z,37.54
2022-09-21T04:37:59.228Z,37.52
2022-09-21T04:38:30.646Z,37.58
2022-09-21T04:39:02.135Z,37.57
2022-09-21T04:39:33.704Z,37.60
2022-09-21T04:40:05.251Z,37.43
2022-09-21T04:40:36.728Z,37.50
2022-09-21T04:41:08.221Z,37.51
2022-09-21T04:41:39.627Z,37.38
2022-09-21T04:42:11.095Z,37.47
2022-09-21T04:42:42.506Z,37.44
2022-09-21T04:43:13.977Z,37.28
2022-09-21T04:43:45.354Z,37.46
2022-09-21T04:44:16.756Z,37.25
2022-09-21T04:44:48.190Z,37.37
2022-09-21T04:45:19.611Z,37.54
2022-09-21T04:45:51.077Z,37.49
2022-09-21T04:46:22.585Z,37.61
2022-09-21T04:46:54.079Z,37.48
2022-09-21T04:47:25.493Z,37.57
2022-09-21T04:47:56.860Z,37.54
2022-09-21T04:48:28.280Z,37.47
2022-09-21T04:48:59.750Z,37.61
2022-09-21T04:49:31.160Z,37.30
2022-09-21T04:50:02.784Z,37.47
2022-09-21T04:50:34.195Z,37.44
2022-09-21T04:51:05.665Z,37.56
2022-09-21T04:51:37.115Z,37.57
2022-09-21T04:52:08.604Z,37.58
2022-09-21T04:52:40.009Z,37.50
2022-09-21T04:53:11.433Z,37.31
2022-09-21T04:53:42.844Z,37.11
2022-09-21T04:54:14.299Z,37.30
2022-09-21T04:54:45.718Z,37.31
2022-09-21T04:55:17.116Z,37.45
2022-09-21T04:55:48.515Z,37.54
2022-09-21T04:56:20.027Z,37.35
2022-09-21T04:56:51.457Z,37.47
2022-09-21T04:57:22.930Z,37.50
2022-09-21T04:57:54.296Z,37.27
2022-09-21T04:58:25.722Z,37.18
2022-09-21T04:58:57.285Z,37.50
2022-09-21T04:59:28.871Z,37.18
2022-09-21T05:00:00.334Z,36.98
2022-09-21T05:00:31.742Z,37.38
2022-09-21T05:01:03.337Z,37.37
2022-09-21T05:01:34.825Z,37.40
2022-09-21T05:02:06.304Z,37.31
2022-09-21T05:02:37.699Z,37.34
2022-09-21T05:03:09.135Z,37.30
2022-09-21T05:03:40.601Z,37.25
2022-09-21T05:04:12.137Z,37.17
2022-09-21T05:04:47.510Z,37.30
2022-09-21T05:05:21.585Z,37.46
2022-09-21T05:05:53.095Z,37.51
2022-09-21T05:06:24.639Z,37.32
2022-09-21T05:06:56.037Z,37.39
2022-09-21T05:07:27.568Z,37.21
2022-09-21T05:07:58.978Z,37.25
2022-09-21T05:08:30.401Z,37.34
2022-09-21T05:09:01.808Z,37.25
2022-09-21T05:09:33.256Z,37.20
2022-09-21T05:10:04.722Z,37.21
2022-09-21T05:10:36.138Z,37.16
2022-09-21T05:11:07.676Z,37.01
2022-09-21T05:11:39.100Z,37.24
2022-09-21T05:12:10.512Z,37.04
2022-09-21T05:12:44.864Z,36.97
2022-09-21T05:13:19.691Z,36.90
2022-09-21T05:13:51.348Z,37.25
2022-09-21T05:14:22.808Z,37.25
2022-09-21T05:14:54.221Z,37.17
2022-09-21T05:15:25.672Z,37.34
2022-09-21T05:15:57.191Z,37.21
2022-09-21T05:16:28.653Z,37.29
2022-09-21T05:17:00.090Z,37.14
2022-09-21T05:17:31.492Z,37.27
2022-09-21T05:18:03.015Z,37.22
2022-09-21T05:18:34.416Z,37.02
2022-09-21T05:19:05.956Z,37.00
2022-09-21T05:19:37.439Z,37.30
2022-09-21T05:20:08.886Z,37.17
2022-09-21T05:20:40.374Z,37.17
2022-09-21T05:21:11.918Z,37.06
2022-09-21T05:21:43.344Z,37.19
2022-09-21T05:22:14.861Z,37.26
2022-09-21T05:22:46.321Z,37.11
2022-09-21T05:23:17.750Z,37.09
2022-09-21T05:23:49.177Z,37.17
2022-09-21T05:24:20.564Z,37.26
2022-09-21T05:24:52.044Z,36.99
2022-09-21T05:25:23.462Z,37.31
2022-09-21T05:25:54.866Z,37.35
2022-09-21T05:26:26.320Z,37.33
2022-09-21T05:26:57.741Z,37.16
2022-09-21T05:27:29.141Z,37.22
2022-09-21T05:28:00.642Z,37.10
2022-09-21T05:28:34.545Z,37.35
2022-09-21T05:29:07.979Z,37.20
2022-09-21T05:29:39.447Z,37.09
2022-09-21T05:30:10.879Z,36.75
2022-09-21T05:30:56.111Z,37.06
2022-09-21T05:31:34.041Z,37.05
2022-09-21T05:32:05.519Z,37.05
2022-09-21T05:32:36.923Z,37.35
2022-09-21T05:33:08.367Z,36.97
2022-09-21T05:33:39.779Z,37.08
2022-09-21T05:34:11.193Z,37.15
2022-09-21T05:34:42.635Z,37.12
2022-09-21T05:35:14.080Z,37.10
2022-09-21T05:35:45.486Z,36.97
2022-09-21T05:36:16.941Z,36.94
2022-09-21T05:36:48.372Z,36.96
2022-09-21T05:37:19.888Z,37.01
2022-09-21T05:37:51.293Z,36.99
2022-09-21T05:38:22.670Z,37.04
2022-09-21T05:38:54.135Z,37.00
2022-09-21T05:39:25.588Z,37.18
2022-09-21T05:39:57.011Z,36.92
2022-09-21T05:40:28.496Z,37.02
2022-09-21T05:40:59.925Z,36.98
2022-09-21T05:41:31.340Z,36.80
2022-09-21T05:42:02.853Z,36.97
2022-09-21T05:42:34.290Z,37.00
2022-09-21T05:43:05.716Z,37.19
2022-09-21T05:43:37.193Z,37.01
2022-09-21T05:44:08.611Z,36.99
2022-09-21T05:44:40.031Z,37.03
2022-09-21T05:45:11.557Z,37.09
2022-09-21T05:45:47.307Z,36.93
2022-09-21T05:46:19.349Z,36.88
2022-09-21T05:46:55.918Z,36.95
2022-09-21T05:47:27.698Z,36.87
2022-09-21T05:47:59.139Z,36.70
2022-09-21T05:48:30.554Z,36.82
2022-09-21T05:49:02.052Z,37.06
2022-09-21T05:49:33.428Z,36.89
2022-09-21T05:50:04.834Z,36.90
2022-09-21T05:50:36.244Z,36.86
2022-09-21T05:51:07.832Z,36.94
2022-09-21T05:51:39.260Z,36.90
2022-09-21T05:52:10.773Z,36.85
2022-09-21T05:52:42.212Z,36.72
2022-09-21T05:53:13.747Z,36.76
2022-09-21T05:53:45.124Z,36.97
2022-09-21T05:54:16.542Z,37.00
2022-09-21T05:54:48.140Z,37.00
2022-09-21T05:55:19.529Z,36.88
2022-09-21T05:55:51.061Z,36.88
2022-09-21T05:56:22.469Z,36.83
2022-09-21T05:56:53.960Z,36.96
2022-09-21T05:57:30.759Z,36.82
2022-09-21T05:58:02.618Z,36.78
2022-09-21T05:58:34.066Z,36.88
2022-09-21T05:59:05.516Z,36.94
2022-09-21T05:59:36.931Z,36.97
2022-09-21T06:00:08.380Z,36.98
2022-09-21T06:00:39.813Z,37.09
2022-09-21T06:01:11.258Z,36.90
2022-09-21T06:01:42.779Z,36.90
2022-09-21T06:02:14.273Z,36.96
2022-09-21T06:02:45.796Z,37.19
2022-09-21T06:03:17.914Z,37.06
2022-09-21T06:03:49.370Z,37.03
2022-09-21T06:04:20.767Z,36.84
2022-09-21T06:04:52.156Z,36.75
2022-09-21T06:05:23.568Z,36.90
2022-09-21T06:05:54.996Z,36.85
2022-09-21T06:06:26.476Z,36.95
2022-09-21T06:06:57.909Z,36.90
2022-09-21T06:07:29.423Z,36.85
2022-09-21T06:08:00.846Z,36.95
2022-09-21T06:08:32.261Z,36.93
2022-09-21T06:09:03.675Z,36.93
2022-09-21T06:09:35.502Z,37.30
2022-09-21T06:10:08.602Z,36.96
2022-09-21T06:10:39.998Z,37.00
2022-09-21T06:11:11.478Z,36.88
2022-09-21T06:11:42.901Z,36.95
2022-09-21T06:12:14.422Z,37.08
2022-09-21T06:12:45.860Z,37.06
2022-09-21T06:13:17.291Z,37.08
2022-09-21T06:13:48.784Z,37.02
2022-09-21T06:14:20.220Z,36.94
2022-09-21T06:14:51.711Z,37.05
2022-09-21T06:15:23.186Z,37.09
2022-09-21T06:15:54.581Z,37.14
2022-09-21T06:16:26.011Z,36.77
2022-09-21T06:16:57.518Z,36.96
2022-09-21T06:17:29.022Z,37.00
2022-09-21T06:18:00.450Z,37.22
2022-09-21T06:18:31.872Z,36.96
2022-09-21T06:19:03.369Z,37.11
2022-09-21T06:19:34.740Z,37.26
2022-09-21T06:20:06.171Z,37.17
2022-09-21T06:20:37.611Z,36.96
2022-09-21T06:21:09.026Z,37.20
2022-09-21T06:21:40.468Z,37.05
2022-09-21T06:22:11.927Z,37.23
2022-09-21T06:22:43.451Z,37.09
2022-09-21T06:23:15.288Z,37.00
2022-09-21T06:23:46.867Z,37.00
2022-09-21T06:24:18.313Z,37.09
2022-09-21T06:24:49.728Z,37.02
2022-09-21T06:25:21.310Z,36.95
2022-09-21T06:25:57.580Z,37.17
2022-09-21T06:26:30.027Z,37.21
2022-09-21T06:27:01.553Z,37.10
2022-09-21T06:27:33.019Z,37.01
2022-09-21T06:28:04.439Z,37.04
2022-09-21T06:28:35.852Z,37.25
2022-09-21T06:29:07.263Z,37.10
2022-09-21T06:29:38.689Z,37.02
2022-09-21T06:30:10.102Z,37.06
2022-09-21T06:30:41.521Z,37.20
2022-09-21T06:31:12.975Z,37.14
2022-09-21T06:31:44.539Z,37.10
2022-09-21T06:32:15.958Z,37.15
2022-09-21T06:32:47.409Z,37.00
2022-09-21T06:33:18.876Z,37.10
2022-09-21T06:33:50.260Z,37.28
2022-09-21T06:34:21.670Z,36.87
2022-09-21T06:34:53.154Z,37.20
2022-09-21T06:35:24.639Z,36.91
2022-09-21T06:35:56.198Z,37.14
2022-09-21T06:36:27.802Z,36.92
2022-09-21T06:36:59.237Z,37.02
2022-09-21T06:37:30.653Z,36.98
2022-09-21T06:38:02.173Z,37.16
2022-09-21T06:38:33.760Z,37.04
2022-09-21T06:39:05.176Z,37.13
2022-09-21T06:39:36.629Z,37.18
2022-09-21T06:40:08.177Z,37.08
2022-09-21T06:40:39.636Z,37.05
2022-09-21T06:41:11.130Z,37.18
2022-09-21T06:41:42.554Z,36.97
2022-09-21T06:42:14.010Z,37.04
2022-09-21T06:42:45.491Z,37.25
2022-09-21T06:43:17.160Z,37.16
2022-09-21T06:43:48.626Z,37.10
2022-09-21T06:44:20.157Z,36.98
2022-09-21T06:44:51.738Z,37.21
2022-09-21T06:45:23.184Z,37.09
2022-09-21T06:45:54.637Z,37.08
2022-09-21T06:46:26.137Z,37.14
2022-09-21T06:46:57.551Z,37.20